createdAt,value
2023-01-21T00:01:09.996Z,53.50
2023-01-21T00:03:38.177Z,53.50
2023-01-21T00:06:06.660Z,53.50
2023-01-21T00:08:34.823Z,53.50
2023-01-21T00:11:06.460Z,53.50
2023-01-21T00:13:36.579Z,53.50
2023-01-21T00:16:05.892Z,53.50
2023-01-21T00:18:34.295Z,53.50
2023-01-21T00:21:02.538Z,53.60
2023-01-21T00:23:30.638Z,53.60
2023-01-21T00:25:59.301Z,53.60
2023-01-21T00:28:29.822Z,53.70
2023-01-21T00:31:00.261Z,53.80
2023-01-21T00:33:28.777Z,53.80
2023-01-21T00:36:01.418Z,53.90
2023-01-21T00:38:29.973Z,53.90
2023-01-21T00:41:02.644Z,53.90
2023-01-21T00:43:31.507Z,53.90
2023-01-21T00:46:00.804Z,53.90
2023-01-21T00:48:29.243Z,53.90
2023-01-21T00:51:00.705Z,53.90
2023-01-21T00:53:30.029Z,53.90
2023-01-21T00:56:02.345Z,53.90
2023-01-21T00:58:31.591Z,53.90
2023-01-21T01:01:05.637Z,53.90
2023-01-21T01:03:34.410Z,53.90
2023-01-21T01:06:06.834Z,53.90
2023-01-21T01:08:35.143Z,54.00
2023-01-21T01:11:03.191Z,53.90
2023-01-21T01:13:32.102Z,53.90
2023-01-21T01:16:00.308Z,54.00
2023-01-21T01:18:32.604Z,54.00
2023-01-21T01:21:00.931Z,54.00
2023-01-21T01:23:29.295Z,54.00
2023-01-21T01:25:59.537Z,54.00
2023-01-21T01:28:27.950Z,54.00
2023-01-21T01:30:56.732Z,54.10
2023-01-21T01:33:26.305Z,54.10
2023-01-21T01:35:55.668Z,54.10
2023-01-21T01:38:24.309Z,54.10
2023-01-21T01:40:53.830Z,54.10
2023-01-21T01:43:24.411Z,54.10
2023-01-21T01:45:54.051Z,54.20
2023-01-21T01:48:27.244Z,54.10
2023-01-21T01:51:02.215Z,54.10
2023-01-21T01:53:31.947Z,54.10
2023-01-21T01:56:00.668Z,54.10
2023-01-21T01:58:30.748Z,54.10
2023-01-21T02:00:59.270Z,54.10
2023-01-21T02:03:46.351Z,54.00
2023-01-21T02:06:17.468Z,54.00
2023-01-21T02:08:47.141Z,54.00
2023-01-21T02:11:16.519Z,54.00
2023-01-21T02:13:47.497Z,54.00
2023-01-21T02:16:49.548Z,54.00
2023-01-21T02:20:07.948Z,54.20
2023-01-21T02:22:45.144Z,54.00
2023-01-21T02:25:42.452Z,53.90
2023-01-21T02:28:42.452Z,54.00
2023-01-21T02:31:29.694Z,54.00
2023-01-21T02:34:09.582Z,54.00
2023-01-21T02:36:48.479Z,54.00
2023-01-21T02:39:26.913Z,54.00
2023-01-21T02:42:04.508Z,54.00
2023-01-21T02:44:39.441Z,54.00
2023-01-21T02:47:16.181Z,54.00
2023-01-21T02:49:50.115Z,54.00
2023-01-21T02:52:20.333Z,54.00
2023-01-21T02:54:58.832Z,53.90
2023-01-21T02:57:36.938Z,53.90
2023-01-21T03:00:10.310Z,53.80
2023-01-21T03:03:17.077Z,53.80
2023-01-21T03:06:30.245Z,53.80
2023-01-21T03:09:02.955Z,53.80
2023-01-21T03:11:31.141Z,53.70
2023-01-21T03:14:20.626Z,53.70
2023-01-21T03:16:59.355Z,53.80
2023-01-21T03:19:33.617Z,53.80
2023-01-21T03:22:09.194Z,53.80
2023-01-21T03:24:39.626Z,53.80
2023-01-21T03:27:10.752Z,53.70
2023-01-21T03:29:42.311Z,53.70
2023-01-21T03:32:14.494Z,53.70
2023-01-21T03:34:45.313Z,53.70
2023-01-21T03:37:18.860Z,53.70
2023-01-21T03:39:53.595Z,53.60
2023-01-21T03:42:22.793Z,53.60
2023-01-21T03:44:50.946Z,53.60
2023-01-21T03:47:25.310Z,53.60
2023-01-21T03:49:58.767Z,53.60
2023-01-21T03:52:28.353Z,53.60
2023-01-21T03:54:56.716Z,53.50
2023-01-21T03:57:24.703Z,53.60
2023-01-21T03:59:52.557Z,53.60
2023-01-21T04:02:21.274Z,53.50
2023-01-21T04:04:49.260Z,53.60
2023-01-21T04:07:17.622Z,53.50
2023-01-21T04:09:47.330Z,53.60
2023-01-21T04:12:15.340Z,53.60
2023-01-21T04:14:43.444Z,53.50
2023-01-21T04:17:11.707Z,53.60
2023-01-21T04:19:39.582Z,53.60
2023-01-21T04:22:07.986Z,53.60
2023-01-21T04:24:36.121Z,53.60
2023-01-21T04:27:05.615Z,53.60
2023-01-21T04:29:33.606Z,53.50
2023-01-21T04:32:01.529Z,53.50
2023-01-21T04:34:29.839Z,53.50
2023-01-21T04:36:57.687Z,53.60
2023-01-21T04:39:25.715Z,53.50
2023-01-21T04:41:53.865Z,53.50
2023-01-21T04:44:23.180Z,53.50
2023-01-21T04:46:51.117Z,53.50
2023-01-21T04:49:19.121Z,53.50
2023-01-21T04:51:47.053Z,53.50
2023-01-21T04:54:15.589Z,53.50
2023-01-21T04:56:43.496Z,53.60
2023-01-21T04:59:12.399Z,53.60
2023-01-21T05:01:41.806Z,53.50
2023-01-21T05:04:09.988Z,53.50
2023-01-21T05:06:37.945Z,53.50
2023-01-21T05:09:06.048Z,53.50
2023-01-21T05:11:34.287Z,53.50
2023-01-21T05:14:02.159Z,53.60
2023-01-21T05:16:30.318Z,53.60
2023-01-21T05:18:59.840Z,53.60
2023-01-21T05:21:27.977Z,53.60
2023-01-21T05:23:56.153Z,53.60
2023-01-21T05:26:24.192Z,54.10
2023-01-21T05:28:54.288Z,53.60
2023-01-21T05:31:22.491Z,53.60
2023-01-21T05:33:50.559Z,53.70
2023-01-21T05:36:20.107Z,53.80
2023-01-21T05:38:48.015Z,53.80
2023-01-21T05:41:16.048Z,53.90
2023-01-21T05:43:43.980Z,53.90
2023-01-21T05:46:12.219Z,53.90
2023-01-21T05:48:40.337Z,53.90
2023-01-21T05:51:08.388Z,53.80
2023-01-21T05:53:37.985Z,53.80
2023-01-21T05:56:07.072Z,53.90
2023-01-21T05:58:35.688Z,53.90
2023-01-21T06:01:03.584Z,53.80
2023-01-21T06:03:31.873Z,53.80
2023-01-21T06:05:59.789Z,53.80
2023-01-21T06:08:27.667Z,53.80
2023-01-21T06:10:57.225Z,53.70
2023-01-21T06:13:26.011Z,53.70
2023-01-21T06:15:55.884Z,53.70
2023-01-21T06:18:24.612Z,53.60
2023-01-21T06:20:52.532Z,53.60
2023-01-21T06:23:20.622Z,53.60
2023-01-21T06:25:50.723Z,53.60
2023-01-21T06:28:20.191Z,53.60
2023-01-21T06:30:48.500Z,53.50
2023-01-21T06:33:16.538Z,53.50
2023-01-21T06:35:44.522Z,53.50
2023-01-21T06:38:12.436Z,53.50
2023-01-21T06:40:40.869Z,53.50
2023-01-21T06:43:09.425Z,53.40
2023-01-21T06:45:38.693Z,53.50
2023-01-21T06:48:07.112Z,53.40
2023-01-21T06:50:35.062Z,53.40
2023-01-21T06:53:02.934Z,53.40
2023-01-21T06:55:31.089Z,53.40
2023-01-21T06:57:59.226Z,53.40
2023-01-21T07:00:27.536Z,53.40
2023-01-21T07:02:58.966Z,53.40
2023-01-21T07:05:27.842Z,53.40
2023-01-21T07:07:56.662Z,53.30
2023-01-21T07:10:25.363Z,53.30
2023-01-21T07:12:53.333Z,53.30
2023-01-21T07:15:21.269Z,53.30
2023-01-21T07:17:49.197Z,53.30
2023-01-21T07:20:19.220Z,53.30
2023-01-21T07:22:47.441Z,53.30
2023-01-21T07:25:15.785Z,53.40
2023-01-21T07:27:44.108Z,53.30
2023-01-21T07:30:17.522Z,53.30
2023-01-21T07:32:45.762Z,53.30
2023-01-21T07:35:13.979Z,53.40
2023-01-21T07:37:44.025Z,53.30
2023-01-21T07:40:13.464Z,53.30
2023-01-21T07:42:41.437Z,53.30
2023-01-21T07:45:10.519Z,53.30
2023-01-21T07:47:38.442Z,53.40
2023-01-21T07:50:08.592Z,53.40
2023-01-21T07:52:37.008Z,53.40
2023-01-21T07:55:08.103Z,53.40
2023-01-21T07:57:36.780Z,53.30
2023-01-21T08:00:05.326Z,53.30
2023-01-21T08:02:39.671Z,53.40
2023-01-21T08:05:08.126Z,53.40
2023-01-21T08:07:36.331Z,53.50
2023-01-21T08:10:06.067Z,53.60
2023-01-21T08:12:34.059Z,53.60
2023-01-21T08:15:02.102Z,53.70
2023-01-21T08:17:30.172Z,53.80
2023-01-21T08:19:58.152Z,53.80
2023-01-21T08:22:26.895Z,53.80
2023-01-21T08:24:55.038Z,53.90
2023-01-21T08:27:24.439Z,53.90
2023-01-21T08:29:52.724Z,53.90
2023-01-21T08:32:21.261Z,53.90
2023-01-21T08:34:49.164Z,54.00
2023-01-21T08:37:19.012Z,54.00
2023-01-21T08:39:46.940Z,54.00
2023-01-21T08:42:14.881Z,53.90
2023-01-21T08:44:48.161Z,54.00
2023-01-21T08:47:16.184Z,53.90
2023-01-21T08:49:44.409Z,53.90
2023-01-21T08:52:12.829Z,54.00
2023-01-21T08:54:41.348Z,54.00
2023-01-21T08:57:09.598Z,53.90
2023-01-21T08:59:37.543Z,54.50
2023-01-21T09:02:08.281Z,54.00
2023-01-21T09:04:36.310Z,54.00
2023-01-21T09:07:04.411Z,54.00
2023-01-21T09:09:32.420Z,54.10
2023-01-21T09:12:01.017Z,54.20
2023-01-21T09:14:29.104Z,54.30
2023-01-21T09:16:57.319Z,54.20
2023-01-21T09:19:27.583Z,54.30
2023-01-21T09:21:55.608Z,54.30
2023-01-21T09:24:24.820Z,54.30
2023-01-21T09:26:52.685Z,54.30
2023-01-21T09:29:20.698Z,54.50
2023-01-21T09:31:48.722Z,54.70
2023-01-21T09:34:16.808Z,55.40
2023-01-21T09:36:49.319Z,56.90
2023-01-21T09:39:17.283Z,58.20
2023-01-21T09:41:49.630Z,58.90
2023-01-21T09:44:24.313Z,58.90
2023-01-21T09:46:57.455Z,58.50
2023-01-21T09:49:29.582Z,57.30
2023-01-21T09:52:04.306Z,55.80
2023-01-21T09:54:34.797Z,54.20
2023-01-21T09:57:28.336Z,52.90
2023-01-21T10:00:08.402Z,51.60
2023-01-21T10:02:53.237Z,51.20
2023-01-21T10:05:41.707Z,51.00
2023-01-21T10:08:19.028Z,50.80
2023-01-21T10:10:52.442Z,51.00
2023-01-21T10:13:43.183Z,51.00
2023-01-21T10:16:19.234Z,51.00
2023-01-21T10:18:49.657Z,51.10
2023-01-21T10:21:30.633Z,51.20
2023-01-21T10:24:05.021Z,51.40
2023-01-21T10:26:35.064Z,51.70
2023-01-21T10:29:03.216Z,52.10
2023-01-21T10:31:38.976Z,52.30
2023-01-21T10:34:13.598Z,52.50
2023-01-21T10:36:54.202Z,52.70
2023-01-21T10:39:32.615Z,52.70
2023-01-21T10:42:11.104Z,52.70
2023-01-21T10:44:46.805Z,52.50
2023-01-21T10:47:24.782Z,52.30
2023-01-21T10:50:01.494Z,52.20
2023-01-21T10:52:38.229Z,52.40
2023-01-21T10:55:20.593Z,52.50
2023-01-21T10:57:57.223Z,52.50
2023-01-21T11:00:27.815Z,52.60
2023-01-21T11:03:00.067Z,52.70
2023-01-21T11:05:29.508Z,52.60
2023-01-21T11:07:58.806Z,52.80
2023-01-21T11:10:28.844Z,52.80
2023-01-21T11:12:57.833Z,52.70
2023-01-21T11:15:26.189Z,52.80
2023-01-21T11:17:56.675Z,52.90
2023-01-21T11:20:33.101Z,52.80
2023-01-21T11:23:05.536Z,53.30
2023-01-21T11:25:41.451Z,52.90
2023-01-21T11:28:23.671Z,52.90
2023-01-21T11:31:03.322Z,52.80
2023-01-21T11:33:31.403Z,52.80
2023-01-21T11:36:13.927Z,52.50
2023-01-21T11:38:43.045Z,52.50
2023-01-21T11:41:22.658Z,52.80
2023-01-21T11:43:53.168Z,53.30
2023-01-21T11:46:36.545Z,53.90
2023-01-21T11:49:34.497Z,53.40
2023-01-21T11:52:21.232Z,53.80
2023-01-21T11:54:49.383Z,54.00
2023-01-21T11:57:30.547Z,53.60
2023-01-21T12:00:07.510Z,52.80
2023-01-21T12:02:42.799Z,52.60
2023-01-21T12:05:16.983Z,52.30
2023-01-21T12:07:50.595Z,51.90
2023-01-21T12:10:26.978Z,52.10
2023-01-21T12:13:15.216Z,51.30
2023-01-21T12:16:03.448Z,51.20
2023-01-21T12:18:50.750Z,51.10
2023-01-21T12:21:29.910Z,51.10
2023-01-21T12:24:09.968Z,51.00
2023-01-21T12:26:42.105Z,51.00
2023-01-21T12:29:36.079Z,51.50
2023-01-21T12:32:09.961Z,50.80
2023-01-21T12:34:41.213Z,51.00
2023-01-21T12:37:17.459Z,51.10
2023-01-21T12:39:51.918Z,51.60
2023-01-21T12:42:25.368Z,51.30
2023-01-21T12:44:58.228Z,51.40
2023-01-21T12:47:33.123Z,51.50
2023-01-21T12:50:20.661Z,51.30
2023-01-21T12:53:00.114Z,51.00
2023-01-21T12:55:37.839Z,51.30
2023-01-21T12:58:12.445Z,51.50
2023-01-21T13:00:46.164Z,51.60
2023-01-21T13:03:26.498Z,51.40
2023-01-21T13:05:59.514Z,51.30
2023-01-21T13:08:48.200Z,51.10
2023-01-21T13:11:21.310Z,50.60
2023-01-21T13:13:55.467Z,50.70
2023-01-21T13:16:27.192Z,50.80
2023-01-21T13:18:56.711Z,50.70
2023-01-21T13:21:37.499Z,50.70
2023-01-21T13:24:16.722Z,50.50
2023-01-21T13:26:52.244Z,50.40
2023-01-21T13:29:30.071Z,50.50
2023-01-21T13:32:23.185Z,50.40
2023-01-21T13:34:58.704Z,50.20
2023-01-21T13:37:34.070Z,50.40
2023-01-21T13:40:22.466Z,50.30
2023-01-21T13:42:59.950Z,50.20
2023-01-21T13:45:38.056Z,50.40
2023-01-21T13:48:26.572Z,51.10
2023-01-21T13:51:07.772Z,50.50
2023-01-21T13:54:03.603Z,50.60
2023-01-21T13:56:54.527Z,50.40
2023-01-21T13:59:25.585Z,50.50
2023-01-21T14:01:59.329Z,50.50
2023-01-21T14:04:32.758Z,50.50
2023-01-21T14:07:04.927Z,50.40
2023-01-21T14:09:38.385Z,50.40
2023-01-21T14:12:13.416Z,50.40
2023-01-21T14:15:09.155Z,50.40
2023-01-21T14:18:05.349Z,50.30
2023-01-21T14:21:04.028Z,50.20
2023-01-21T14:23:46.787Z,50.30
2023-01-21T14:26:35.236Z,50.30
2023-01-21T14:29:11.893Z,50.20
2023-01-21T14:31:44.763Z,50.30
2023-01-21T14:34:17.749Z,50.40
2023-01-21T14:36:55.383Z,50.30
2023-01-21T14:39:37.076Z,50.30
2023-01-21T14:42:10.750Z,50.30
2023-01-21T14:44:44.740Z,50.30
2023-01-21T14:47:18.378Z,50.30
2023-01-21T14:49:48.251Z,50.20
2023-01-21T14:52:20.107Z,50.20
2023-01-21T14:54:49.249Z,50.20
2023-01-21T14:57:27.999Z,50.10
2023-01-21T15:00:05.647Z,50.10
2023-01-21T15:02:35.770Z,50.00
2023-01-21T15:05:16.504Z,50.00
2023-01-21T15:07:49.012Z,50.00
2023-01-21T15:10:21.216Z,50.00
2023-01-21T15:12:54.122Z,49.90
2023-01-21T15:15:34.267Z,49.80
2023-01-21T15:18:22.902Z,49.60
2023-01-21T15:20:52.989Z,49.70
2023-01-21T15:23:41.434Z,49.60
2023-01-21T15:26:21.430Z,49.40
2023-01-21T15:28:52.049Z,49.60
2023-01-21T15:31:42.534Z,49.70
2023-01-21T15:34:15.859Z,49.70
2023-01-21T15:36:50.542Z,49.80
2023-01-21T15:39:28.041Z,49.80
2023-01-21T15:42:07.567Z,49.80
2023-01-21T15:44:51.927Z,49.90
2023-01-21T15:47:41.081Z,50.00
2023-01-21T15:50:19.318Z,49.90
2023-01-21T15:53:03.986Z,50.00
2023-01-21T15:55:51.294Z,49.90
2023-01-21T15:58:29.211Z,50.00
2023-01-21T16:01:05.037Z,50.00
2023-01-21T16:03:39.149Z,50.00
2023-01-21T16:06:20.754Z,50.00
2023-01-21T16:09:03.743Z,50.10
2023-01-21T16:11:47.831Z,50.10
2023-01-21T16:14:28.388Z,50.20
2023-01-21T16:17:07.011Z,50.30
2023-01-21T16:19:39.517Z,50.30
2023-01-21T16:22:10.129Z,50.30
2023-01-21T16:24:42.566Z,50.30
2023-01-21T16:27:20.232Z,50.30
2023-01-21T16:29:48.432Z,50.40
2023-01-21T16:32:20.258Z,50.40
2023-01-21T16:34:48.930Z,50.40
2023-01-21T16:37:18.973Z,50.40
2023-01-21T16:39:47.571Z,50.40
2023-01-21T16:42:32.623Z,50.50
2023-01-21T16:45:01.706Z,50.50
2023-01-21T16:47:37.007Z,50.60
2023-01-21T16:50:06.484Z,50.70
2023-01-21T16:52:34.366Z,50.70
2023-01-21T16:55:02.337Z,50.70
2023-01-21T16:57:32.731Z,50.70
2023-01-21T17:00:02.522Z,50.80
2023-01-21T17:02:32.485Z,50.80
2023-01-21T17:05:02.156Z,50.90
2023-01-21T17:07:34.526Z,50.90
2023-01-21T17:10:05.784Z,51.00
2023-01-21T17:12:36.514Z,51.00
2023-01-21T17:15:18.603Z,51.00
2023-01-21T17:17:47.455Z,51.10
2023-01-21T17:20:35.144Z,51.00
2023-01-21T17:23:04.919Z,51.00
2023-01-21T17:25:33.136Z,51.00
2023-01-21T17:28:17.995Z,51.00
2023-01-21T17:30:46.339Z,51.10
2023-01-21T17:33:30.485Z,51.10
2023-01-21T17:36:10.621Z,51.10
2023-01-21T17:38:43.369Z,51.10
2023-01-21T17:41:23.287Z,51.20
2023-01-21T17:43:55.612Z,51.10
2023-01-21T17:46:24.302Z,51.10
2023-01-21T17:48:55.556Z,51.10
2023-01-21T17:51:27.273Z,51.20
2023-01-21T17:53:58.854Z,51.20
2023-01-21T17:56:39.642Z,51.30
2023-01-21T17:59:38.213Z,51.30
2023-01-21T18:02:10.688Z,51.30
2023-01-21T18:04:38.666Z,51.30
2023-01-21T18:07:15.887Z,51.20
2023-01-21T18:09:43.988Z,51.30
2023-01-21T18:12:12.558Z,51.30
2023-01-21T18:14:43.457Z,51.40
2023-01-21T18:17:18.043Z,51.50
2023-01-21T18:19:46.349Z,51.40
2023-01-21T18:22:22.631Z,51.30
2023-01-21T18:24:50.707Z,51.40
2023-01-21T18:27:20.485Z,51.40
2023-01-21T18:29:50.709Z,51.50
2023-01-21T18:32:19.449Z,51.60
2023-01-21T18:34:47.712Z,51.60
2023-01-21T18:37:17.377Z,51.60
2023-01-21T18:39:45.743Z,51.70
2023-01-21T18:42:15.792Z,51.70
2023-01-21T18:44:44.793Z,51.70
2023-01-21T18:47:14.870Z,51.60
2023-01-21T18:49:43.290Z,51.60
2023-01-21T18:52:11.726Z,51.60
2023-01-21T18:54:40.219Z,51.60
2023-01-21T18:57:12.365Z,51.60
2023-01-21T18:59:40.357Z,51.70
2023-01-21T19:02:15.365Z,51.80
2023-01-21T19:04:43.392Z,51.80
2023-01-21T19:07:15.721Z,51.80
2023-01-21T19:09:45.930Z,51.80
2023-01-21T19:12:17.162Z,51.80
2023-01-21T19:14:45.459Z,51.80
2023-01-21T19:17:16.350Z,51.80
2023-01-21T19:19:44.588Z,51.80
2023-01-21T19:22:14.916Z,51.80
2023-01-21T19:24:43.070Z,51.80
2023-01-21T19:27:15.306Z,51.80
2023-01-21T19:29:43.255Z,51.80
2023-01-21T19:32:15.810Z,51.90
2023-01-21T19:34:43.945Z,51.80
2023-01-21T19:37:14.811Z,51.90
2023-01-21T19:39:42.844Z,51.80
2023-01-21T19:42:12.562Z,51.80
2023-01-21T19:44:40.533Z,51.80
2023-01-21T19:47:18.073Z,51.80
2023-01-21T19:49:46.135Z,51.90
2023-01-21T19:52:15.633Z,51.90
2023-01-21T19:54:43.712Z,52.00
2023-01-21T19:57:14.999Z,52.00
2023-01-21T19:59:44.202Z,52.00
2023-01-21T20:02:12.627Z,52.00
2023-01-21T20:04:41.899Z,52.10
2023-01-21T20:07:13.900Z,52.10
2023-01-21T20:09:42.045Z,52.20
2023-01-21T20:12:12.596Z,52.20
2023-01-21T20:14:40.602Z,52.20
2023-01-21T20:17:13.849Z,52.20
2023-01-21T20:19:43.254Z,52.20
2023-01-21T20:22:13.238Z,52.10
2023-01-21T20:24:41.116Z,52.10
2023-01-21T20:27:14.130Z,52.10
2023-01-21T20:29:49.586Z,52.00
2023-01-21T20:32:23.491Z,52.00
2023-01-21T20:34:53.065Z,52.00
2023-01-21T20:37:21.041Z,52.00
2023-01-21T20:39:48.938Z,52.10
2023-01-21T20:42:16.980Z,52.00
2023-01-21T20:44:44.860Z,52.00
2023-01-21T20:47:12.988Z,52.10
2023-01-21T20:49:40.862Z,52.10
2023-01-21T20:52:11.967Z,52.10
2023-01-21T20:54:40.303Z,52.20
2023-01-21T20:57:13.261Z,52.20
2023-01-21T20:59:41.223Z,52.30
2023-01-21T21:02:12.468Z,52.20
2023-01-21T21:04:41.098Z,52.30
2023-01-21T21:07:15.382Z,52.20
2023-01-21T21:09:43.693Z,52.30
2023-01-21T21:12:12.158Z,52.30
2023-01-21T21:14:40.260Z,52.30
2023-01-21T21:17:12.282Z,52.20
2023-01-21T21:19:40.308Z,52.20
2023-01-21T21:22:09.120Z,52.20
2023-01-21T21:24:38.595Z,52.10
2023-01-21T21:27:06.793Z,52.10
2023-01-21T21:29:34.754Z,52.20
2023-01-21T21:32:02.786Z,52.20
2023-01-21T21:34:30.971Z,52.20
2023-01-21T21:36:59.029Z,52.20
2023-01-21T21:39:27.136Z,52.20
2023-01-21T21:42:25.701Z,52.20
2023-01-21T21:44:53.621Z,52.20
2023-01-21T21:47:38.909Z,52.10
2023-01-21T21:50:07.646Z,52.20
2023-01-21T21:52:35.616Z,52.20
2023-01-21T21:55:03.544Z,52.20
2023-01-21T21:57:33.570Z,52.20
2023-01-21T22:00:01.460Z,52.20
2023-01-21T22:02:29.452Z,52.30
2023-01-21T22:04:57.533Z,52.30
2023-01-21T22:07:25.479Z,52.40
2023-01-21T22:09:53.400Z,52.40
2023-01-21T22:12:21.419Z,52.40
2023-01-21T22:14:50.622Z,52.30
2023-01-21T22:17:18.799Z,52.30
2023-01-21T22:19:46.694Z,52.30
2023-01-21T22:22:14.602Z,52.30
2023-01-21T22:24:44.067Z,52.40
2023-01-21T22:27:13.211Z,52.30
2023-01-21T22:29:41.154Z,52.40
2023-01-21T22:32:10.439Z,52.40
2023-01-21T22:34:38.811Z,52.50
2023-01-21T22:37:06.729Z,52.50
2023-01-21T22:39:34.636Z,52.40
2023-01-21T22:42:04.914Z,52.40
2023-01-21T22:44:33.127Z,52.40
2023-01-21T22:47:01.245Z,52.50
2023-01-21T22:49:30.625Z,52.50
2023-01-21T22:51:58.540Z,52.50
2023-01-21T22:54:26.987Z,52.50
2023-01-21T22:56:55.048Z,52.60
2023-01-21T22:59:23.020Z,52.70
2023-01-21T23:01:51.158Z,52.70
2023-01-21T23:04:19.467Z,52.70
2023-01-21T23:06:51.042Z,52.80
2023-01-21T23:09:19.167Z,52.80
2023-01-21T23:11:47.135Z,52.90
2023-01-21T23:14:15.406Z,52.90
2023-01-21T23:16:43.783Z,53.00
2023-01-21T23:19:12.207Z,53.00
2023-01-21T23:21:40.510Z,53.10
2023-01-21T23:24:10.097Z,53.00
2023-01-21T23:26:38.423Z,53.00
2023-01-21T23:29:06.345Z,53.10
2023-01-21T23:31:35.589Z,53.10
2023-01-21T23:34:04.183Z,53.20
2023-01-21T23:36:32.274Z,53.20
2023-01-21T23:39:00.360Z,53.20
2023-01-21T23:41:29.687Z,53.30
2023-01-21T23:43:59.757Z,53.30
2023-01-21T23:46:27.862Z,53.40
2023-01-21T23:48:55.931Z,53.40
2023-01-21T23:51:23.980Z,53.40
2023-01-21T23:53:51.887Z,53.40
2023-01-21T23:56:23.088Z,53.40
2023-01-21T23:58:52.795Z,53.50
